createdAt,value
2023-02-07T00:00:03.234Z,55.87
2023-02-07T00:05:17.467Z,55.96
2023-02-07T00:10:20.251Z,56.16
2023-02-07T00:15:23.059Z,56.28
2023-02-07T00:20:27.182Z,56.73
2023-02-07T00:25:29.938Z,56.86
2023-02-07T00:30:32.773Z,56.89
2023-02-07T00:35:37.295Z,57.14
2023-02-07T00:40:41.054Z,57.18
2023-02-07T00:45:43.845Z,57.35
2023-02-07T00:50:48.073Z,57.74
2023-02-07T00:55:52.280Z,57.68
2023-02-07T01:00:55.096Z,57.89
2023-02-07T01:05:59.324Z,58.13
2023-02-07T01:11:04.159Z,58.33
2023-02-07T01:16:07.431Z,58.69
2023-02-07T01:21:17.109Z,59.08
2023-02-07T01:26:19.922Z,59.14
2023-02-07T01:31:24.032Z,59.65
2023-02-07T01:36:30.031Z,60.00
2023-02-07T01:41:32.849Z,60.19
2023-02-07T01:46:37.045Z,60.25
2023-02-07T01:51:46.349Z,60.33
2023-02-07T01:56:54.862Z,60.46
2023-02-07T02:01:58.948Z,60.42
2023-02-07T02:07:04.975Z,60.53
2023-02-07T02:12:47.202Z,60.67
2023-02-07T02:18:03.826Z,60.86
2023-02-07T02:23:19.625Z,60.87
2023-02-07T02:28:46.535Z,60.92
2023-02-07T02:33:58.725Z,61.15
2023-02-07T02:39:09.250Z,61.23
2023-02-07T02:44:18.077Z,61.41
2023-02-07T02:49:23.984Z,61.42
2023-02-07T02:54:31.966Z,61.73
2023-02-07T02:59:52.337Z,61.69
2023-02-07T03:05:13.923Z,61.75
2023-02-07T03:10:29.657Z,62.07
2023-02-07T03:15:39.260Z,62.06
2023-02-07T03:20:49.210Z,62.22
2023-02-07T03:25:53.728Z,62.27
2023-02-07T03:31:02.641Z,62.41
2023-02-07T03:36:15.355Z,62.54
2023-02-07T03:41:25.572Z,62.59
2023-02-07T03:46:35.636Z,62.68
2023-02-07T03:51:39.796Z,62.99
2023-02-07T03:56:42.876Z,63.10
2023-02-07T04:01:45.692Z,63.01
2023-02-07T04:06:49.913Z,63.16
2023-02-07T04:11:53.426Z,63.46
2023-02-07T04:16:56.315Z,63.47
2023-02-07T04:22:00.435Z,63.55
2023-02-07T04:27:03.274Z,63.61
2023-02-07T04:32:06.436Z,63.28
2023-02-07T04:37:10.606Z,62.85
2023-02-07T04:42:13.579Z,62.61
2023-02-07T04:47:16.383Z,62.43
2023-02-07T04:52:20.493Z,62.46
2023-02-07T04:57:23.289Z,62.19
2023-02-07T05:02:26.212Z,62.09
2023-02-07T05:07:30.521Z,61.96
2023-02-07T05:12:33.434Z,61.89
2023-02-07T05:17:38.497Z,61.95
2023-02-07T05:22:42.861Z,61.82
2023-02-07T05:27:45.759Z,61.99
2023-02-07T05:33:05.999Z,61.72
2023-02-07T05:38:12.929Z,61.75
2023-02-07T05:43:15.859Z,61.79
2023-02-07T05:48:18.746Z,61.59
2023-02-07T05:53:23.060Z,61.64
2023-02-07T05:58:25.824Z,61.57
2023-02-07T06:03:28.622Z,61.52
2023-02-07T06:08:32.803Z,61.38
2023-02-07T06:13:35.710Z,61.47
2023-02-07T06:18:38.806Z,61.49
2023-02-07T06:23:42.948Z,61.58
2023-02-07T06:28:45.859Z,61.49
2023-02-07T06:33:48.607Z,61.45
2023-02-07T06:38:55.399Z,61.59
2023-02-07T06:43:58.290Z,61.45
2023-02-07T06:49:01.081Z,61.36
2023-02-07T06:54:09.566Z,61.46
2023-02-07T06:59:12.415Z,61.37
2023-02-07T07:04:15.616Z,61.54
2023-02-07T07:09:19.900Z,61.56
2023-02-07T07:14:23.048Z,61.51
2023-02-07T07:19:25.869Z,61.26
2023-02-07T07:24:30.021Z,61.53
2023-02-07T07:29:32.849Z,61.52
2023-02-07T07:34:35.792Z,61.52
2023-02-07T07:39:40.018Z,61.48
2023-02-07T07:44:42.916Z,61.54
2023-02-07T07:49:45.740Z,61.63
2023-02-07T07:54:49.853Z,61.52
2023-02-07T07:59:52.674Z,61.51
2023-02-07T08:04:55.666Z,44.17
2023-02-07T08:09:59.848Z,45.90
2023-02-07T08:15:02.828Z,46.09
2023-02-07T08:20:07.514Z,46.32
2023-02-07T08:25:11.776Z,47.27
2023-02-07T08:30:15.958Z,47.55
2023-02-07T08:35:19.165Z,48.33
2023-02-07T08:40:23.367Z,48.92
2023-02-07T08:45:26.494Z,49.30
2023-02-07T08:50:29.257Z,49.79
2023-02-07T08:55:33.423Z,50.23
2023-02-07T09:00:36.297Z,50.58
2023-02-07T09:05:39.201Z,51.25
2023-02-07T09:10:45.400Z,51.61
2023-02-07T09:15:55.476Z,52.01
2023-02-07T09:20:58.310Z,52.42
2023-02-07T09:26:04.679Z,52.76
2023-02-07T09:31:11.708Z,52.93
2023-02-07T09:36:21.032Z,53.18
2023-02-07T09:41:31.398Z,53.21
2023-02-07T09:46:38.126Z,53.37
2023-02-07T09:51:41.883Z,53.39
2023-02-07T09:56:47.395Z,53.55
2023-02-07T10:01:54.646Z,53.66
2023-02-07T10:07:00.180Z,53.64
2023-02-07T10:12:17.392Z,53.68
2023-02-07T10:17:32.430Z,53.86
2023-02-07T10:22:45.787Z,54.22
2023-02-07T10:28:04.349Z,54.44
2023-02-07T10:33:15.831Z,54.50
2023-02-07T10:38:24.983Z,54.62
2023-02-07T10:43:32.569Z,54.61
2023-02-07T10:48:36.833Z,54.67
2023-02-07T10:53:54.957Z,54.82
2023-02-07T10:59:00.842Z,54.91
2023-02-07T11:04:22.723Z,54.86
2023-02-07T11:09:26.388Z,54.99
2023-02-07T11:14:31.038Z,55.07
2023-02-07T11:19:33.927Z,55.02
2023-02-07T11:24:38.598Z,55.07
2023-02-07T11:29:49.593Z,54.99
2023-02-07T11:34:55.302Z,55.13
2023-02-07T11:40:21.170Z,55.09
2023-02-07T11:45:25.805Z,55.17
2023-02-07T11:50:31.250Z,55.08
2023-02-07T11:55:36.942Z,55.29
2023-02-07T12:00:42.452Z,55.44
2023-02-07T12:05:51.783Z,55.42
2023-02-07T12:10:59.032Z,55.33
2023-02-07T12:16:08.030Z,55.33
2023-02-07T12:21:19.657Z,55.48
2023-02-07T12:26:25.638Z,55.30
2023-02-07T12:31:38.644Z,55.36
2023-02-07T12:36:47.445Z,55.50
2023-02-07T12:41:57.196Z,55.57
2023-02-07T12:47:08.562Z,55.69
2023-02-07T12:52:27.204Z,55.71
2023-02-07T12:57:38.853Z,55.74
2023-02-07T13:02:56.523Z,55.72
2023-02-07T13:08:11.161Z,55.84
2023-02-07T13:13:23.336Z,55.78
2023-02-07T13:18:35.403Z,55.83
2023-02-07T13:23:42.706Z,55.86
2023-02-07T13:28:51.094Z,55.89
2023-02-07T13:33:55.549Z,55.91
2023-02-07T13:39:08.967Z,42.24
2023-02-07T13:44:23.514Z,43.24
2023-02-07T13:49:41.718Z,46.08
2023-02-07T13:54:57.076Z,43.84
2023-02-07T14:00:15.445Z,44.01
2023-02-07T14:05:26.318Z,45.06
2023-02-07T14:10:39.842Z,46.50
2023-02-07T14:16:11.257Z,48.39
2023-02-07T14:21:45.835Z,49.83
2023-02-07T14:27:06.380Z,51.42
2023-02-07T14:32:28.582Z,52.88
2023-02-07T14:37:49.324Z,53.36
2023-02-07T14:43:02.438Z,53.53
2023-02-07T14:48:07.657Z,53.68
2023-02-07T14:53:15.803Z,53.93
2023-02-07T14:58:27.482Z,54.12
2023-02-07T15:03:34.835Z,54.17
2023-02-07T15:08:39.116Z,54.37
2023-02-07T15:13:45.256Z,54.42
2023-02-07T15:18:52.772Z,54.74
2023-02-07T15:24:01.581Z,54.89
2023-02-07T15:29:07.305Z,54.92
2023-02-07T15:34:17.427Z,55.13
2023-02-07T15:39:23.956Z,55.17
2023-02-07T15:44:28.303Z,55.35
2023-02-07T15:49:34.044Z,55.45
2023-02-07T15:54:45.962Z,55.63
2023-02-07T15:59:52.188Z,55.66
2023-02-07T16:04:55.158Z,55.71
2023-02-07T16:10:17.907Z,55.85
2023-02-07T16:15:27.948Z,55.42
2023-02-07T16:20:35.219Z,55.22
2023-02-07T16:25:39.440Z,55.09
2023-02-07T16:30:42.595Z,54.83
2023-02-07T16:35:45.723Z,54.87
2023-02-07T16:40:50.455Z,55.08
2023-02-07T16:45:54.512Z,55.21
2023-02-07T16:50:58.212Z,54.93
2023-02-07T16:56:03.929Z,55.21
2023-02-07T17:01:06.854Z,55.07
2023-02-07T17:06:14.093Z,54.80
2023-02-07T17:11:20.693Z,54.33
2023-02-07T17:16:25.461Z,54.16
2023-02-07T17:21:28.272Z,54.11
2023-02-07T17:26:32.960Z,53.75
2023-02-07T17:31:35.913Z,53.70
2023-02-07T17:36:40.085Z,53.73
2023-02-07T17:41:44.352Z,53.45
2023-02-07T17:46:47.170Z,53.37
2023-02-07T17:51:50.245Z,53.12
2023-02-07T17:56:55.705Z,53.00
2023-02-07T18:01:58.535Z,53.26
2023-02-07T18:07:01.369Z,53.34
2023-02-07T18:12:05.802Z,53.19
2023-02-07T18:17:08.646Z,53.26
2023-02-07T18:22:11.810Z,53.07
2023-02-07T18:27:17.338Z,52.95
2023-02-07T18:32:20.159Z,52.77
2023-02-07T18:37:23.003Z,52.33
2023-02-07T18:42:27.406Z,52.40
2023-02-07T18:47:32.194Z,52.21
2023-02-07T18:52:35.100Z,52.19
2023-02-07T18:57:39.286Z,52.35
2023-02-07T19:02:42.145Z,52.20
2023-02-07T19:07:45.000Z,52.33
2023-02-07T19:12:49.161Z,52.48
2023-02-07T19:17:51.909Z,52.31
2023-02-07T19:22:54.669Z,52.18
2023-02-07T19:27:58.856Z,52.20
2023-02-07T19:33:01.640Z,52.35
2023-02-07T19:38:04.792Z,52.23
2023-02-07T19:43:09.143Z,52.10
2023-02-07T19:48:11.945Z,52.32
2023-02-07T19:53:16.123Z,51.52
2023-02-07T19:58:20.249Z,51.81
2023-02-07T20:03:23.048Z,51.93
2023-02-07T20:08:26.144Z,52.14
2023-02-07T20:13:33.435Z,52.25
2023-02-07T20:18:36.559Z,52.32
2023-02-07T20:23:41.654Z,52.44
2023-02-07T20:28:46.715Z,52.41
2023-02-07T20:33:50.101Z,52.59
2023-02-07T20:38:53.309Z,52.53
2023-02-07T20:43:59.202Z,52.69
2023-02-07T20:49:04.880Z,52.57
2023-02-07T20:54:07.966Z,52.85
2023-02-07T20:59:17.556Z,52.82
2023-02-07T21:04:20.363Z,52.82
2023-02-07T21:09:23.359Z,52.94
2023-02-07T21:14:29.609Z,52.84
2023-02-07T21:19:32.475Z,52.71
2023-02-07T21:24:35.631Z,52.87
2023-02-07T21:29:39.899Z,52.92
2023-02-07T21:34:42.882Z,53.11
2023-02-07T21:39:45.617Z,53.00
2023-02-07T21:44:49.786Z,53.26
2023-02-07T21:49:52.518Z,53.02
2023-02-07T21:54:55.344Z,53.32
2023-02-07T21:59:59.548Z,53.19
2023-02-07T22:05:02.347Z,53.13
2023-02-07T22:10:05.420Z,53.25
2023-02-07T22:15:10.031Z,53.18
2023-02-07T22:20:13.096Z,53.38
2023-02-07T22:25:16.055Z,53.47
2023-02-07T22:30:20.352Z,53.69
2023-02-07T22:35:23.096Z,53.51
2023-02-07T22:40:25.858Z,53.66
2023-02-07T22:45:30.546Z,53.74
2023-02-07T22:50:33.718Z,53.67
2023-02-07T22:55:36.436Z,53.87
2023-02-07T23:00:41.577Z,53.97
2023-02-07T23:05:44.558Z,54.12
2023-02-07T23:10:47.308Z,54.14
2023-02-07T23:15:51.566Z,54.16
2023-02-07T23:20:54.482Z,54.35
2023-02-07T23:25:58.693Z,54.34
2023-02-07T23:31:02.846Z,54.31
2023-02-07T23:36:06.930Z,54.42
2023-02-07T23:41:10.230Z,54.43
2023-02-07T23:46:16.157Z,54.31
2023-02-07T23:51:19.040Z,54.45
2023-02-07T23:56:23.367Z,54.59
